sensor_id;sensor_type;location;lat;lon;timestamp;pressure;altitude;pressure_sealevel;temperature;humidity
54628;BME280;40525;55.926;21.066;2024-01-11T00:02:21;101950.16;;;2.46;100.00
54628;BME280;40525;55.926;21.066;2024-01-11T00:04:48;101954.01;;;2.49;100.00
54628;BME280;40525;55.926;21.066;2024-01-11T00:07:15;101940.13;;;2.51;100.00
54628;BME280;40525;55.926;21.066;2024-01-11T00:09:42;101955.05;;;2.50;100.00
54628;BME280;40525;55.926;21.066;2024-01-11T00:12:09;101959.20;;;2.48;100.00
54628;BME280;40525;55.926;21.066;2024-01-11T00:14:37;101954.33;;;2.46;100.00
54628;BME280;40525;55.926;21.066;2024-01-11T00:17:04;101952.08;;;2.47;100.00
54628;BME280;40525;55.926;21.066;2024-01-11T00:19:31;101953.46;;;2.47;100.00
54628;BME280;40525;55.926;21.066;2024-01-11T00:21:58;101949.32;;;2.50;100.00
54628;BME280;40525;55.926;21.066;2024-01-11T00:24:26;101930.06;;;2.50;100.00
54628;BME280;40525;55.926;21.066;2024-01-11T00:26:53;101928.66;;;2.50;100.00
54628;BME280;40525;55.926;21.066;2024-01-11T00:29:20;101919.14;;;2.52;100.00
54628;BME280;40525;55.926;21.066;2024-01-11T00:31:47;101908.55;;;2.52;100.00
54628;BME280;40525;55.926;21.066;2024-01-11T00:34:14;101920.16;;;2.52;100.00
54628;BME280;40525;55.926;21.066;2024-01-11T00:36:42;101918.44;;;2.50;100.00
54628;BME280;40525;55.926;21.066;2024-01-11T00:39:09;101911.14;;;2.49;100.00
54628;BME280;40525;55.926;21.066;2024-01-11T00:41:37;101903.86;;;2.51;100.00
54628;BME280;40525;55.926;21.066;2024-01-11T00:44:05;101899.85;;;2.50;100.00
54628;BME280;40525;55.926;21.066;2024-01-11T00:46:32;101905.23;;;2.50;100.00
54628;BME280;40525;55.926;21.066;2024-01-11T00:48:59;101911.85;;;2.52;100.00
54628;BME280;40525;55.926;21.066;2024-01-11T00:51:26;101912.03;;;2.54;100.00
54628;BME280;40525;55.926;21.066;2024-01-11T00:53:53;101904.20;;;2.51;100.00
54628;BME280;40525;55.926;21.066;2024-01-11T00:56:20;101910.63;;;2.51;100.00
54628;BME280;40525;55.926;21.066;2024-01-11T00:58:48;101908.20;;;2.52;100.00
54628;BME280;40525;55.926;21.066;2024-01-11T01:01:14;101908.05;;;2.55;100.00
54628;BME280;40525;55.926;21.066;2024-01-11T01:03:42;101908.23;;;2.57;100.00
54628;BME280;40525;55.926;21.066;2024-01-11T01:06:08;101905.14;;;2.62;100.00
54628;BME280;40525;55.926;21.066;2024-01-11T01:08:36;101898.92;;;2.65;100.00
54628;BME280;40525;55.926;21.066;2024-01-11T01:11:03;101892.33;;;2.66;100.00
54628;BME280;40525;55.926;21.066;2024-01-11T01:13:30;101889.02;;;2.66;100.00
54628;BME280;40525;55.926;21.066;2024-01-11T01:15:57;101882.92;;;2.64;100.00
54628;BME280;40525;55.926;21.066;2024-01-11T01:18:25;101887.77;;;2.62;100.00
54628;BME280;40525;55.926;21.066;2024-01-11T01:20:52;101891.25;;;2.61;100.00
54628;BME280;40525;55.926;21.066;2024-01-11T01:23:19;101886.91;;;2.61;100.00
54628;BME280;40525;55.926;21.066;2024-01-11T01:25:46;101883.29;;;2.64;100.00
54628;BME280;40525;55.926;21.066;2024-01-11T01:28:13;101867.30;;;2.61;100.00
54628;BME280;40525;55.926;21.066;2024-01-11T01:30:40;101858.80;;;2.64;100.00
54628;BME280;40525;55.926;21.066;2024-01-11T01:33:07;101856.04;;;2.66;100.00
54628;BME280;40525;55.926;21.066;2024-01-11T01:35:35;101850.99;;;2.65;100.00
54628;BME280;40525;55.926;21.066;2024-01-11T01:38:02;101846.47;;;2.63;100.00
54628;BME280;40525;55.926;21.066;2024-01-11T01:40:32;101842.30;;;2.62;100.00
54628;BME280;40525;55.926;21.066;2024-01-11T01:42:59;101836.93;;;2.63;100.00
54628;BME280;40525;55.926;21.066;2024-01-11T01:45:29;101828.25;;;2.64;100.00
54628;BME280;40525;55.926;21.066;2024-01-11T01:47:56;101834.52;;;2.67;100.00
54628;BME280;40525;55.926;21.066;2024-01-11T01:50:23;101835.58;;;2.70;100.00
54628;BME280;40525;55.926;21.066;2024-01-11T01:52:51;101829.31;;;2.68;100.00
54628;BME280;40525;55.926;21.066;2024-01-11T01:55:19;101824.27;;;2.63;100.00
54628;BME280;40525;55.926;21.066;2024-01-11T01:57:47;101823.71;;;2.61;100.00
54628;BME280;40525;55.926;21.066;2024-01-11T02:00:16;101826.51;;;2.62;100.00
54628;BME280;40525;55.926;21.066;2024-01-11T02:02:44;101819.73;;;2.63;100.00
54628;BME280;40525;55.926;21.066;2024-01-11T02:05:14;101814.70;;;2.62;100.00
54628;BME280;40525;55.926;21.066;2024-01-11T02:07:41;101812.95;;;2.61;100.00
54628;BME280;40525;55.926;21.066;2024-01-11T02:10:09;101815.39;;;2.62;100.00
54628;BME280;40525;55.926;21.066;2024-01-11T02:12:36;101820.95;;;2.61;100.00
54628;BME280;40525;55.926;21.066;2024-01-11T02:15:07;101823.52;;;2.58;100.00
54628;BME280;40525;55.926;21.066;2024-01-11T02:17:34;101826.48;;;2.56;100.00
54628;BME280;40525;55.926;21.066;2024-01-11T02:20:01;101830.81;;;2.56;100.00
54628;BME280;40525;55.926;21.066;2024-01-11T02:22:38;101834.46;;;2.56;100.00
54628;BME280;40525;55.926;21.066;2024-01-11T02:25:07;101831.00;;;2.58;100.00
54628;BME280;40525;55.926;21.066;2024-01-11T02:27:48;101826.15;;;2.60;100.00
54628;BME280;40525;55.926;21.066;2024-01-11T02:30:16;101824.42;;;2.63;100.00
54628;BME280;40525;55.926;21.066;2024-01-11T02:32:44;101819.41;;;2.67;100.00
54628;BME280;40525;55.926;21.066;2024-01-11T02:35:14;101815.77;;;2.68;100.00
54628;BME280;40525;55.926;21.066;2024-01-11T02:37:42;101818.05;;;2.71;100.00
54628;BME280;40525;55.926;21.066;2024-01-11T02:40:12;101812.84;;;2.70;100.00
54628;BME280;40525;55.926;21.066;2024-01-11T02:42:40;101805.71;;;2.70;100.00
54628;BME280;40525;55.926;21.066;2024-01-11T02:45:07;101794.79;;;2.71;100.00
54628;BME280;40525;55.926;21.066;2024-01-11T02:47:34;101791.13;;;2.72;100.00
54628;BME280;40525;55.926;21.066;2024-01-11T02:50:01;101793.58;;;2.77;100.00
54628;BME280;40525;55.926;21.066;2024-01-11T02:52:28;101785.44;;;2.78;100.00
54628;BME280;40525;55.926;21.066;2024-01-11T02:54:56;101784.05;;;2.82;100.00
54628;BME280;40525;55.926;21.066;2024-01-11T02:57:23;101784.76;;;2.82;100.00
54628;BME280;40525;55.926;21.066;2024-01-11T02:59:51;101782.15;;;2.83;100.00
54628;BME280;40525;55.926;21.066;2024-01-11T03:02:18;101779.36;;;2.80;100.00
54628;BME280;40525;55.926;21.066;2024-01-11T03:04:45;101782.66;;;2.80;100.00
54628;BME280;40525;55.926;21.066;2024-01-11T03:07:12;101776.92;;;2.78;100.00
54628;BME280;40525;55.926;21.066;2024-01-11T03:09:39;101782.30;;;2.79;100.00
54628;BME280;40525;55.926;21.066;2024-01-11T03:12:06;101779.72;;;2.82;100.00
54628;BME280;40525;55.926;21.066;2024-01-11T03:14:33;101780.77;;;2.84;100.00
54628;BME280;40525;55.926;21.066;2024-01-11T03:17:01;101781.13;;;2.87;100.00
54628;BME280;40525;55.926;21.066;2024-01-11T03:19:28;101777.48;;;2.86;100.00
54628;BME280;40525;55.926;21.066;2024-01-11T03:21:56;101770.69;;;2.86;100.00
54628;BME280;40525;55.926;21.066;2024-01-11T03:24:23;101754.02;;;2.81;100.00
54628;BME280;40525;55.926;21.066;2024-01-11T03:26:50;101763.23;;;2.85;100.00
54628;BME280;40525;55.926;21.066;2024-01-11T03:29:17;101762.54;;;2.85;100.00
54628;BME280;40525;55.926;21.066;2024-01-11T03:31:44;101751.24;;;2.87;100.00
54628;BME280;40525;55.926;21.066;2024-01-11T03:34:12;101753.34;;;2.88;100.00
54628;BME280;40525;55.926;21.066;2024-01-11T03:36:40;101753.18;;;2.90;100.00
54628;BME280;40525;55.926;21.066;2024-01-11T03:39:07;101753.52;;;2.90;100.00
54628;BME280;40525;55.926;21.066;2024-01-11T03:41:34;101753.34;;;2.89;100.00
54628;BME280;40525;55.926;21.066;2024-01-11T03:44:01;101740.30;;;2.87;100.00
54628;BME280;40525;55.926;21.066;2024-01-11T03:46:29;101730.42;;;2.85;100.00
54628;BME280;40525;55.926;21.066;2024-01-11T03:48:56;101725.20;;;2.84;100.00
54628;BME280;40525;55.926;21.066;2024-01-11T03:51:24;101719.47;;;2.83;100.00
54628;BME280;40525;55.926;21.066;2024-01-11T03:53:51;101723.81;;;2.83;100.00
54628;BME280;40525;55.926;21.066;2024-01-11T03:56:18;101723.81;;;2.83;100.00
54628;BME280;40525;55.926;21.066;2024-01-11T03:58:46;101725.55;;;2.83;100.00
54628;BME280;40525;55.926;21.066;2024-01-11T04:01:13;101725.21;;;2.83;100.00
54628;BME280;40525;55.926;21.066;2024-01-11T04:03:41;101721.39;;;2.84;100.00
54628;BME280;40525;55.926;21.066;2024-01-11T04:06:08;101719.80;;;2.82;100.00
54628;BME280;40525;55.926;21.066;2024-01-11T04:08:36;101717.90;;;2.83;100.00
54628;BME280;40525;55.926;21.066;2024-01-11T04:11:03;101720.36;;;2.87;100.00
54628;BME280;40525;55.926;21.066;2024-01-11T04:13:31;101716.17;;;2.86;100.00
54628;BME280;40525;55.926;21.066;2024-01-11T04:15:58;101714.44;;;2.88;100.00
54628;BME280;40525;55.926;21.066;2024-01-11T04:18:25;101714.27;;;2.90;100.00
54628;BME280;40525;55.926;21.066;2024-01-11T04:20:52;101706.27;;;2.91;100.00
54628;BME280;40525;55.926;21.066;2024-01-11T04:23:20;101708.89;;;2.93;100.00
54628;BME280;40525;55.926;21.066;2024-01-11T04:25:47;101702.63;;;2.90;100.00
54628;BME280;40525;55.926;21.066;2024-01-11T04:28:14;101702.81;;;2.89;100.00
54628;BME280;40525;55.926;21.066;2024-01-11T04:30:41;101695.52;;;2.88;100.00
54628;BME280;40525;55.926;21.066;2024-01-11T04:33:09;101687.88;;;2.88;100.00
54628;BME280;40525;55.926;21.066;2024-01-11T04:35:37;101687.88;;;2.88;100.00
54628;BME280;40525;55.926;21.066;2024-01-11T04:38:04;101681.09;;;2.87;100.00
54628;BME280;40525;55.926;21.066;2024-01-11T04:40:31;101677.62;;;2.87;100.00
54628;BME280;40525;55.926;21.066;2024-01-11T04:42:58;101678.13;;;2.85;100.00
54628;BME280;40525;55.926;21.066;2024-01-11T04:45:25;101670.14;;;2.78;100.00
54628;BME280;40525;55.926;21.066;2024-01-11T04:47:52;101678.64;;;2.81;100.00
54628;BME280;40525;55.926;21.066;2024-01-11T04:50:20;101673.95;;;2.78;100.00
54628;BME280;40525;55.926;21.066;2024-01-11T04:52:48;101682.30;;;2.78;100.00
54628;BME280;40525;55.926;21.066;2024-01-11T04:55:15;101678.12;;;2.77;100.00
54628;BME280;40525;55.926;21.066;2024-01-11T04:57:42;101681.59;;;2.77;100.00
54628;BME280;40525;55.926;21.066;2024-01-11T05:00:10;101686.98;;;2.77;100.00
54628;BME280;40525;55.926;21.066;2024-01-11T05:02:37;101692.55;;;2.78;100.00
54628;BME280;40525;55.926;21.066;2024-01-11T05:05:05;101689.94;;;2.80;100.00
54628;BME280;40525;55.926;21.066;2024-01-11T05:07:33;101692.02;;;2.82;100.00
54628;BME280;40525;55.926;21.066;2024-01-11T05:10:01;101687.85;;;2.79;100.00
54628;BME280;40525;55.926;21.066;2024-01-11T05:12:29;101685.05;;;2.75;100.00
54628;BME280;40525;55.926;21.066;2024-01-11T05:14:56;101681.42;;;2.74;100.00
54628;BME280;40525;55.926;21.066;2024-01-11T05:17:23;101676.89;;;2.74;100.00
54628;BME280;40525;55.926;21.066;2024-01-11T05:19:50;101682.29;;;2.75;100.00
54628;BME280;40525;55.926;21.066;2024-01-11T05:22:18;101678.98;;;2.75;100.00
54628;BME280;40525;55.926;21.066;2024-01-11T05:24:45;101687.50;;;2.77;100.00
54628;BME280;40525;55.926;21.066;2024-01-11T05:27:12;101681.60;;;2.78;100.00
54628;BME280;40525;55.926;21.066;2024-01-11T05:29:39;101679.86;;;2.79;100.00
54628;BME280;40525;55.926;21.066;2024-01-11T05:32:06;101676.91;;;2.77;100.00
54628;BME280;40525;55.926;21.066;2024-01-11T05:34:33;101684.71;;;2.75;100.00
54628;BME280;40525;55.926;21.066;2024-01-11T05:37:01;101689.22;;;2.73;100.00
54628;BME280;40525;55.926;21.066;2024-01-11T05:39:27;101688.53;;;2.74;100.00
54628;BME280;40525;55.926;21.066;2024-01-11T05:41:54;101685.77;;;2.76;100.00
54628;BME280;40525;55.926;21.066;2024-01-11T05:44:22;101686.98;;;2.80;100.00
54628;BME280;40525;55.926;21.066;2024-01-11T05:46:48;101689.25;;;2.84;100.00
54628;BME280;40525;55.926;21.066;2024-01-11T05:49:16;101686.31;;;2.89;100.00
54628;BME280;40525;55.926;21.066;2024-01-11T05:51:43;101690.30;;;2.92;100.00
54628;BME280;40525;55.926;21.066;2024-01-11T05:54:10;101694.83;;;2.93;100.00
54628;BME280;40525;55.926;21.066;2024-01-11T05:56:37;101698.99;;;2.94;100.00
54628;BME280;40525;55.926;21.066;2024-01-11T05:59:04;101698.14;;;2.94;100.00
54628;BME280;40525;55.926;21.066;2024-01-11T06:01:32;101694.47;;;2.93;100.00
54628;BME280;40525;55.926;21.066;2024-01-11T06:03:59;101695.17;;;2.95;100.00
54628;BME280;40525;55.926;21.066;2024-01-11T06:06:26;101689.80;;;2.98;100.00
54628;BME280;40525;55.926;21.066;2024-01-11T06:08:53;101689.28;;;3.02;100.00
54628;BME280;40525;55.926;21.066;2024-01-11T06:11:20;101691.36;;;3.03;100.00
54628;BME280;40525;55.926;21.066;2024-01-11T06:13:47;101692.59;;;3.07;100.00
54628;BME280;40525;55.926;21.066;2024-01-11T06:16:14;101691.72;;;3.10;100.00
54628;BME280;40525;55.926;21.066;2024-01-11T06:18:41;101690.33;;;3.11;100.00
54628;BME280;40525;55.926;21.066;2024-01-11T06:21:08;101697.80;;;3.11;100.00
54628;BME280;40525;55.926;21.066;2024-01-11T06:23:35;101695.20;;;3.11;100.00
54628;BME280;40525;55.926;21.066;2024-01-11T06:26:02;101692.60;;;3.13;100.00
54628;BME280;40525;55.926;21.066;2024-01-11T06:28:30;101696.08;;;3.14;100.00
54628;BME280;40525;55.926;21.066;2024-01-11T06:31:00;101700.95;;;3.17;100.00
54628;BME280;40525;55.926;21.066;2024-01-11T06:33:28;101696.23;;;3.19;100.00
54628;BME280;40525;55.926;21.066;2024-01-11T06:35:55;101701.98;;;3.18;100.00
54628;BME280;40525;55.926;21.066;2024-01-11T06:38:25;101699.20;;;3.18;100.00
54628;BME280;40525;55.926;21.066;2024-01-11T06:40:52;101700.95;;;3.21;100.00
54628;BME280;40525;55.926;21.066;2024-01-11T06:43:19;101706.50;;;3.23;100.00
54628;BME280;40525;55.926;21.066;2024-01-11T06:45:46;101709.80;;;3.25;100.00
54628;BME280;40525;55.926;21.066;2024-01-11T06:48:13;101712.05;;;3.25;100.00
54628;BME280;40525;55.926;21.066;2024-01-11T06:50:41;101708.76;;;3.24;100.00
54628;BME280;40525;55.926;21.066;2024-01-11T06:53:08;101719.70;;;3.23;100.00
54628;BME280;40525;55.926;21.066;2024-01-11T06:55:36;101724.05;;;3.22;100.00
54628;BME280;40525;55.926;21.066;2024-01-11T06:58:03;101715.02;;;3.21;100.00
54628;BME280;40525;55.926;21.066;2024-01-11T07:00:30;101715.36;;;3.21;100.00
54628;BME280;40525;55.926;21.066;2024-01-11T07:02:57;101711.36;;;3.24;100.00
54628;BME280;40525;55.926;21.066;2024-01-11T07:05:24;101711.20;;;3.26;100.00
54628;BME280;40525;55.926;21.066;2024-01-11T07:07:51;101715.36;;;3.27;100.00
54628;BME280;40525;55.926;21.066;2024-01-11T07:10:18;101720.23;;;3.29;100.00
54628;BME280;40525;55.926;21.066;2024-01-11T07:12:45;101721.63;;;3.27;100.00
54628;BME280;40525;55.926;21.066;2024-01-11T07:15:14;101725.63;;;3.26;100.00
54628;BME280;40525;55.926;21.066;2024-01-11T07:17:41;101723.52;;;3.26;100.00
54628;BME280;40525;55.926;21.066;2024-01-11T07:20:09;101716.75;;;3.28;100.00
54628;BME280;40525;55.926;21.066;2024-01-11T07:22:37;101716.75;;;3.30;100.00
54628;BME280;40525;55.926;21.066;2024-01-11T07:25:08;101715.72;;;3.33;100.00
54628;BME280;40525;55.926;21.066;2024-01-11T07:27:35;101720.41;;;3.38;100.00
54628;BME280;40525;55.926;21.066;2024-01-11T07:30:03;101717.45;;;3.42;100.00
54628;BME280;40525;55.926;21.066;2024-01-11T07:32:30;101719.36;;;3.43;100.00
54628;BME280;40525;55.926;21.066;2024-01-11T07:34:57;101718.32;;;3.43;100.00
54628;BME280;40525;55.926;21.066;2024-01-11T07:37:24;101720.06;;;3.42;100.00
54628;BME280;40525;55.926;21.066;2024-01-11T07:39:53;101718.49;;;3.41;100.00
54628;BME280;40525;55.926;21.066;2024-01-11T07:42:20;101719.71;;;3.41;100.00
54628;BME280;40525;55.926;21.066;2024-01-11T07:44:51;101714.84;;;3.41;100.00
54628;BME280;40525;55.926;21.066;2024-01-11T07:47:18;101712.58;;;3.43;100.00
54628;BME280;40525;55.926;21.066;2024-01-11T07:49:45;101707.20;;;3.42;100.00
54628;BME280;40525;55.926;21.066;2024-01-11T07:52:12;101708.59;;;3.45;100.00
54628;BME280;40525;55.926;21.066;2024-01-11T07:54:39;101703.90;;;3.42;100.00
54628;BME280;40525;55.926;21.066;2024-01-11T07:57:06;101708.60;;;3.40;100.00
54628;BME280;40525;55.926;21.066;2024-01-11T07:59:33;101712.07;;;3.42;100.00
54628;BME280;40525;55.926;21.066;2024-01-11T08:02:03;101713.98;;;3.47;100.00
54628;BME280;40525;55.926;21.066;2024-01-11T08:04:31;101712.59;;;3.51;100.00
54628;BME280;40525;55.926;21.066;2024-01-11T08:06:58;101713.27;;;3.55;100.00
54628;BME280;40525;55.926;21.066;2024-01-11T08:09:28;101713.11;;;3.56;100.00
54628;BME280;40525;55.926;21.066;2024-01-11T08:11:56;101720.23;;;3.57;100.00
54628;BME280;40525;55.926;21.066;2024-01-11T08:14:26;101711.73;;;3.57;100.00
54628;BME280;40525;55.926;21.066;2024-01-11T08:16:53;101712.05;;;3.56;100.00
54628;BME280;40525;55.926;21.066;2024-01-11T08:19:20;101707.20;;;3.56;100.00
54628;BME280;40525;55.926;21.066;2024-01-11T08:21:48;101703.72;;;3.55;100.00
54628;BME280;40525;55.926;21.066;2024-01-11T08:24:17;101709.11;;;3.57;100.00
54628;BME280;40525;55.926;21.066;2024-01-11T08:26:44;101697.63;;;3.59;100.00
54628;BME280;40525;55.926;21.066;2024-01-11T08:29:13;101691.02;;;3.60;100.00
54628;BME280;40525;55.926;21.066;2024-01-11T08:31:41;101701.64;;;3.61;100.00
54628;BME280;40525;55.926;21.066;2024-01-11T08:34:10;101702.48;;;3.63;100.00
54628;BME280;40525;55.926;21.066;2024-01-11T08:36:37;101707.02;;;3.65;100.00
54628;BME280;40525;55.926;21.066;2024-01-11T08:39:06;101708.73;;;3.65;100.00
54628;BME280;40525;55.926;21.066;2024-01-11T08:41:34;101707.70;;;3.65;100.00
54628;BME280;40525;55.926;21.066;2024-01-11T08:44:08;101709.80;;;3.67;100.00
54628;BME280;40525;55.926;21.066;2024-01-11T08:46:35;101708.58;;;3.68;100.00
54628;BME280;40525;55.926;21.066;2024-01-11T08:49:02;101713.45;;;3.72;100.00
54628;BME280;40525;55.926;21.066;2024-01-11T08:51:32;101714.31;;;3.74;100.00
54628;BME280;40525;55.926;21.066;2024-01-11T08:53:59;101725.45;;;3.74;100.00
54628;BME280;40525;55.926;21.066;2024-01-11T08:56:28;101721.79;;;3.73;100.00
54628;BME280;40525;55.926;21.066;2024-01-11T08:58:56;101724.40;;;3.71;100.00
54628;BME280;40525;55.926;21.066;2024-01-11T09:01:25;101717.44;;;3.70;100.00
54628;BME280;40525;55.926;21.066;2024-01-11T09:03:52;101731.69;;;3.73;100.00
54628;BME280;40525;55.926;21.066;2024-01-11T09:06:19;101725.26;;;3.75;100.00
54628;BME280;40525;55.926;21.066;2024-01-11T09:08:46;101722.30;;;3.77;100.00
54628;BME280;40525;55.926;21.066;2024-01-11T09:11:13;101717.42;;;3.81;100.00
54628;BME280;40525;55.926;21.066;2024-01-11T09:13:42;101723.17;;;3.83;100.00
54628;BME280;40525;55.926;21.066;2024-01-11T09:16:09;101721.95;;;3.84;100.00
54628;BME280;40525;55.926;21.066;2024-01-11T09:18:37;101721.25;;;3.85;100.00
54628;BME280;40525;55.926;21.066;2024-01-11T09:21:05;101724.55;;;3.86;100.00
54628;BME280;40525;55.926;21.066;2024-01-11T09:23:34;101723.33;;;3.88;100.00
54628;BME280;40525;55.926;21.066;2024-01-11T09:26:02;101727.67;;;3.91;100.00
54628;BME280;40525;55.926;21.066;2024-01-11T09:28:29;101734.96;;;3.96;100.00
54628;BME280;40525;55.926;21.066;2024-01-11T09:30:56;101734.61;;;3.98;100.00
54628;BME280;40525;55.926;21.066;2024-01-11T09:33:27;101728.00;;;4.00;100.00
54628;BME280;40525;55.926;21.066;2024-01-11T09:35:55;101723.14;;;3.99;100.00
54628;BME280;40525;55.926;21.066;2024-01-11T09:38:25;101722.96;;;3.95;100.00
54628;BME280;40525;55.926;21.066;2024-01-11T09:41:12;101725.58;;;3.94;100.00
54628;BME280;40525;55.926;21.066;2024-01-11T09:43:43;101723.48;;;3.99;100.00
54628;BME280;40525;55.926;21.066;2024-01-11T09:46:11;101721.55;;;4.06;100.00
54628;BME280;40525;55.926;21.066;2024-01-11T09:48:40;101716.33;;;4.07;100.00
54628;BME280;40525;55.926;21.066;2024-01-11T09:51:10;101723.98;;;4.09;100.00
54628;BME280;40525;55.926;21.066;2024-01-11T09:53:38;101726.78;;;4.04;100.00
54628;BME280;40525;55.926;21.066;2024-01-11T09:56:08;101726.08;;;4.05;100.00
54628;BME280;40525;55.926;21.066;2024-01-11T09:58:36;101728.32;;;4.14;100.00
54628;BME280;40525;55.926;21.066;2024-01-11T10:01:09;101729.86;;;4.21;100.00
54628;BME280;40525;55.926;21.066;2024-01-11T10:03:40;101740.29;;;4.23;100.00
54628;BME280;40525;55.926;21.066;2024-01-11T10:06:09;101751.26;;;4.28;100.00
54628;BME280;40525;55.926;21.066;2024-01-11T10:08:37;101756.48;;;4.23;100.00
54628;BME280;40525;55.926;21.066;2024-01-11T10:11:04;101754.92;;;4.20;100.00
54628;BME280;40525;55.926;21.066;2024-01-11T10:13:31;101752.33;;;4.22;100.00
54628;BME280;40525;55.926;21.066;2024-01-11T10:16:09;101754.02;;;4.27;100.00
54628;BME280;40525;55.926;21.066;2024-01-11T10:18:41;101754.38;;;4.29;100.00
54628;BME280;40525;55.926;21.066;2024-01-11T10:21:09;101758.39;;;4.30;100.00
54628;BME280;40525;55.926;21.066;2024-01-11T10:23:36;101757.17;;;4.26;100.00
54628;BME280;40525;55.926;21.066;2024-01-11T10:26:05;101759.60;;;4.25;100.00
54628;BME280;40525;55.926;21.066;2024-01-11T10:28:34;101760.47;;;4.27;100.00
54628;BME280;40525;55.926;21.066;2024-01-11T10:31:05;101762.39;;;4.30;100.00
54628;BME280;40525;55.926;21.066;2024-01-11T10:33:34;101758.38;;;4.34;100.00
54628;BME280;40525;55.926;21.066;2024-01-11T10:36:03;101757.84;;;4.37;100.00
54628;BME280;40525;55.926;21.066;2024-01-11T10:38:36;101754.02;;;4.32;99.86
54628;BME280;40525;55.926;21.066;2024-01-11T10:41:04;101761.54;;;4.25;99.23
54628;BME280;40525;55.926;21.066;2024-01-11T10:43:33;101770.09;;;4.16;98.37
54628;BME280;40525;55.926;21.066;2024-01-11T10:46:04;101776.70;;;4.07;97.91
54628;BME280;40525;55.926;21.066;2024-01-11T10:48:37;101777.06;;;4.03;97.96
54628;BME280;40525;55.926;21.066;2024-01-11T10:51:08;101776.20;;;3.98;98.12
54628;BME280;40525;55.926;21.066;2024-01-11T10:53:44;101774.98;;;3.95;98.07
54628;BME280;40525;55.926;21.066;2024-01-11T10:56:14;101778.98;;;3.89;97.55
54628;BME280;40525;55.926;21.066;2024-01-11T10:58:45;101773.42;;;3.79;96.85
54628;BME280;40525;55.926;21.066;2024-01-11T11:01:14;101786.48;;;3.74;97.23
54628;BME280;40525;55.926;21.066;2024-01-11T11:03:43;101800.04;;;3.73;96.99
54628;BME280;40525;55.926;21.066;2024-01-11T11:06:11;101800.91;;;3.70;97.04
54628;BME280;40525;55.926;21.066;2024-01-11T11:08:41;101797.08;;;3.68;97.11
54628;BME280;40525;55.926;21.066;2024-01-11T11:11:09;101803.16;;;3.66;96.35
54628;BME280;40525;55.926;21.066;2024-01-11T11:13:37;101803.85;;;3.62;96.37
54628;BME280;40525;55.926;21.066;2024-01-11T11:16:05;101806.64;;;3.57;95.34
54628;BME280;40525;55.926;21.066;2024-01-11T11:18:33;101807.33;;;3.52;95.99
54628;BME280;40525;55.926;21.066;2024-01-11T11:21:08;101804.73;;;3.56;96.26
54628;BME280;40525;55.926;21.066;2024-01-11T11:23:37;101811.86;;;3.59;95.74
54628;BME280;40525;55.926;21.066;2024-01-11T11:26:06;101806.12;;;3.56;95.03
54628;BME280;40525;55.926;21.066;2024-01-11T11:28:37;101806.46;;;3.53;95.51
54628;BME280;40525;55.926;21.066;2024-01-11T11:31:04;101806.46;;;3.51;95.47
54628;BME280;40525;55.926;21.066;2024-01-11T11:33:31;101799.67;;;3.50;95.13
54628;BME280;40525;55.926;21.066;2024-01-11T11:35:59;101806.63;;;3.48;94.72
54628;BME280;40525;55.926;21.066;2024-01-11T11:38:30;101811.84;;;3.45;94.53
54628;BME280;40525;55.926;21.066;2024-01-11T11:40:59;101809.05;;;3.44;94.42
54628;BME280;40525;55.926;21.066;2024-01-11T11:43:28;101810.10;;;3.45;93.51
54628;BME280;40525;55.926;21.066;2024-01-11T11:45:55;101807.85;;;3.44;93.55
54628;BME280;40525;55.926;21.066;2024-01-11T11:51:09;101818.09;;;3.46;93.48
54628;BME280;40525;55.926;21.066;2024-01-11T11:53:37;101818.61;;;3.43;93.17
54628;BME280;40525;55.926;21.066;2024-01-11T11:56:05;101821.56;;;3.41;92.88
54628;BME280;40525;55.926;21.066;2024-01-11T11:58:34;101824.18;;;3.42;92.86
54628;BME280;40525;55.926;21.066;2024-01-11T12:01:02;101826.95;;;3.41;92.38
54628;BME280;40525;55.926;21.066;2024-01-11T12:03:32;101826.95;;;3.38;92.12
54628;BME280;40525;55.926;21.066;2024-01-11T12:06:00;101827.65;;;3.38;92.17
54628;BME280;40525;55.926;21.066;2024-01-11T12:08:28;101834.08;;;3.39;92.16
54628;BME280;40525;55.926;21.066;2024-01-11T12:10:55;101831.98;;;3.38;92.27
54628;BME280;40525;55.926;21.066;2024-01-11T12:13:22;101832.84;;;3.36;92.18
54628;BME280;40525;55.926;21.066;2024-01-11T12:15:49;101833.02;;;3.33;91.84
54628;BME280;40525;55.926;21.066;2024-01-11T12:18:16;101825.18;;;3.24;90.63
54628;BME280;40525;55.926;21.066;2024-01-11T12:20:43;101824.47;;;3.19;91.15
54628;BME280;40525;55.926;21.066;2024-01-11T12:23:10;101828.29;;;3.18;91.44
54628;BME280;40525;55.926;21.066;2024-01-11T12:25:38;101832.82;;;3.19;91.63
54628;BME280;40525;55.926;21.066;2024-01-11T12:28:06;101836.11;;;3.17;91.39
54628;BME280;40525;55.926;21.066;2024-01-11T12:30:34;101841.14;;;3.13;91.42
54628;BME280;40525;55.926;21.066;2024-01-11T12:33:02;101850.16;;;3.11;91.30
54628;BME280;40525;55.926;21.066;2024-01-11T12:35:30;101857.27;;;3.08;91.09
54628;BME280;40525;55.926;21.066;2024-01-11T12:38:00;101863.15;;;3.04;90.84
54628;BME280;40525;55.926;21.066;2024-01-11T12:40:28;101868.70;;;2.99;90.43
54628;BME280;40525;55.926;21.066;2024-01-11T12:42:56;101873.89;;;2.94;90.41
54628;BME280;40525;55.926;21.066;2024-01-11T12:45:24;101875.61;;;2.90;90.08
54628;BME280;40525;55.926;21.066;2024-01-11T12:47:53;101874.73;;;2.87;89.82
54628;BME280;40525;55.926;21.066;2024-01-11T12:50:28;101875.76;;;2.86;89.78